sensor_id;sensor_type;location;lat;lon;timestamp;P1;durP1;ratioP1;P2;durP2;ratioP2
52686;SDS011;38584;49.426;8.396;2022-10-16T00:02:15;7.13;;;2.40;;
52686;SDS011;38584;49.426;8.396;2022-10-16T00:04:41;9.60;;;2.50;;
52686;SDS011;38584;49.426;8.396;2022-10-16T00:07:06;12.63;;;2.33;;
52686;SDS011;38584;49.426;8.396;2022-10-16T00:09:31;7.38;;;2.58;;
52686;SDS011;38584;49.426;8.396;2022-10-16T00:11:57;10.15;;;2.67;;
52686;SDS011;38584;49.426;8.396;2022-10-16T00:14:22;11.20;;;3.42;;
52686;SDS011;38584;49.426;8.396;2022-10-16T00:16:47;7.22;;;2.50;;
52686;SDS011;38584;49.426;8.396;2022-10-16T00:19:13;10.48;;;2.40;;
52686;SDS011;38584;49.426;8.396;2022-10-16T00:21:38;9.25;;;2.20;;
52686;SDS011;38584;49.426;8.396;2022-10-16T00:24:05;6.18;;;2.30;;
52686;SDS011;38584;49.426;8.396;2022-10-16T00:26:33;8.10;;;2.30;;
52686;SDS011;38584;49.426;8.396;2022-10-16T00:29:00;8.20;;;2.47;;
52686;SDS011;38584;49.426;8.396;2022-10-16T00:31:25;8.15;;;2.60;;
52686;SDS011;38584;49.426;8.396;2022-10-16T00:33:51;13.02;;;2.60;;
52686;SDS011;38584;49.426;8.396;2022-10-16T00:36:18;7.13;;;2.30;;
52686;SDS011;38584;49.426;8.396;2022-10-16T00:38:45;8.10;;;2.40;;
52686;SDS011;38584;49.426;8.396;2022-10-16T00:41:13;8.27;;;2.60;;
52686;SDS011;38584;49.426;8.396;2022-10-16T00:43:44;5.93;;;2.60;;
52686;SDS011;38584;49.426;8.396;2022-10-16T00:46:24;7.88;;;2.33;;
52686;SDS011;38584;49.426;8.396;2022-10-16T00:51:28;5.43;;;2.30;;
52686;SDS011;38584;49.426;8.396;2022-10-16T00:54:14;9.02;;;2.70;;
52686;SDS011;38584;49.426;8.396;2022-10-16T00:56:41;11.93;;;2.60;;
52686;SDS011;38584;49.426;8.396;2022-10-16T00:59:12;8.18;;;2.50;;
52686;SDS011;38584;49.426;8.396;2022-10-16T01:01:40;9.13;;;2.80;;
52686;SDS011;38584;49.426;8.396;2022-10-16T01:04:06;9.05;;;2.83;;
52686;SDS011;38584;49.426;8.396;2022-10-16T01:06:36;7.25;;;2.30;;
52686;SDS011;38584;49.426;8.396;2022-10-16T01:09:23;7.57;;;2.75;;
52686;SDS011;38584;49.426;8.396;2022-10-16T01:20:32;8.90;;;2.67;;
52686;SDS011;38584;49.426;8.396;2022-10-16T01:23:07;10.13;;;2.53;;
52686;SDS011;38584;49.426;8.396;2022-10-16T01:25:47;7.80;;;2.35;;
52686;SDS011;38584;49.426;8.396;2022-10-16T01:28:18;8.55;;;2.58;;
52686;SDS011;38584;49.426;8.396;2022-10-16T01:30:48;14.45;;;3.28;;
52686;SDS011;38584;49.426;8.396;2022-10-16T01:33:19;10.25;;;2.95;;
52686;SDS011;38584;49.426;8.396;2022-10-16T01:35:48;17.92;;;3.08;;
52686;SDS011;38584;49.426;8.396;2022-10-16T01:38:37;12.98;;;3.08;;
52686;SDS011;38584;49.426;8.396;2022-10-16T01:41:06;9.25;;;3.38;;
52686;SDS011;38584;49.426;8.396;2022-10-16T01:43:35;13.35;;;3.10;;
52686;SDS011;38584;49.426;8.396;2022-10-16T01:46:04;7.85;;;2.80;;
52686;SDS011;38584;49.426;8.396;2022-10-16T01:48:30;10.23;;;2.83;;
52686;SDS011;38584;49.426;8.396;2022-10-16T01:51:01;9.80;;;2.70;;
52686;SDS011;38584;49.426;8.396;2022-10-16T01:53:29;9.10;;;2.97;;
52686;SDS011;38584;49.426;8.396;2022-10-16T01:55:55;13.00;;;3.35;;
52686;SDS011;38584;49.426;8.396;2022-10-16T01:58:21;7.10;;;2.78;;
52686;SDS011;38584;49.426;8.396;2022-10-16T02:00:46;14.13;;;2.80;;
52686;SDS011;38584;49.426;8.396;2022-10-16T02:03:13;13.52;;;2.78;;
52686;SDS011;38584;49.426;8.396;2022-10-16T02:08:14;10.88;;;2.50;;
52686;SDS011;38584;49.426;8.396;2022-10-16T02:10:40;9.57;;;2.63;;
52686;SDS011;38584;49.426;8.396;2022-10-16T02:13:09;8.35;;;2.25;;
52686;SDS011;38584;49.426;8.396;2022-10-16T02:15:37;11.05;;;2.33;;
52686;SDS011;38584;49.426;8.396;2022-10-16T02:18:04;6.90;;;2.42;;
52686;SDS011;38584;49.426;8.396;2022-10-16T02:20:31;12.52;;;2.58;;
52686;SDS011;38584;49.426;8.396;2022-10-16T02:22:59;11.50;;;2.58;;
52686;SDS011;38584;49.426;8.396;2022-10-16T02:25:27;12.23;;;2.50;;
52686;SDS011;38584;49.426;8.396;2022-10-16T02:28:13;9.43;;;2.40;;
52686;SDS011;38584;49.426;8.396;2022-10-16T02:30:43;6.25;;;2.28;;
52686;SDS011;38584;49.426;8.396;2022-10-16T02:33:11;6.60;;;2.22;;
52686;SDS011;38584;49.426;8.396;2022-10-16T02:35:38;8.45;;;2.72;;
52686;SDS011;38584;49.426;8.396;2022-10-16T02:38:05;9.07;;;2.58;;
52686;SDS011;38584;49.426;8.396;2022-10-16T02:40:31;10.75;;;2.60;;
52686;SDS011;38584;49.426;8.396;2022-10-16T02:42:56;11.10;;;2.40;;
52686;SDS011;38584;49.426;8.396;2022-10-16T02:45:22;7.13;;;2.30;;
52686;SDS011;38584;49.426;8.396;2022-10-16T02:47:48;12.23;;;2.67;;
52686;SDS011;38584;49.426;8.396;2022-10-16T02:50:13;8.70;;;2.80;;
52686;SDS011;38584;49.426;8.396;2022-10-16T02:52:39;7.35;;;2.65;;
52686;SDS011;38584;49.426;8.396;2022-10-16T02:55:04;7.60;;;2.58;;
52686;SDS011;38584;49.426;8.396;2022-10-16T02:57:30;15.35;;;2.65;;
52686;SDS011;38584;49.426;8.396;2022-10-16T02:59:56;12.95;;;2.42;;
52686;SDS011;38584;49.426;8.396;2022-10-16T03:02:21;8.63;;;2.40;;
52686;SDS011;38584;49.426;8.396;2022-10-16T03:04:47;8.88;;;2.47;;
52686;SDS011;38584;49.426;8.396;2022-10-16T03:07:12;8.68;;;2.75;;
52686;SDS011;38584;49.426;8.396;2022-10-16T03:09:37;8.65;;;2.50;;
52686;SDS011;38584;49.426;8.396;2022-10-16T03:12:03;8.27;;;2.50;;
52686;SDS011;38584;49.426;8.396;2022-10-16T03:14:28;6.13;;;2.30;;
52686;SDS011;38584;49.426;8.396;2022-10-16T03:16:55;11.95;;;2.72;;
52686;SDS011;38584;49.426;8.396;2022-10-16T03:19:20;13.07;;;2.83;;
52686;SDS011;38584;49.426;8.396;2022-10-16T03:21:45;7.45;;;3.10;;
52686;SDS011;38584;49.426;8.396;2022-10-16T03:24:11;10.93;;;3.13;;
52686;SDS011;38584;49.426;8.396;2022-10-16T03:26:36;15.20;;;3.30;;
52686;SDS011;38584;49.426;8.396;2022-10-16T03:29:02;9.48;;;2.92;;
52686;SDS011;38584;49.426;8.396;2022-10-16T03:31:28;7.88;;;3.20;;
52686;SDS011;38584;49.426;8.396;2022-10-16T03:33:53;12.15;;;3.13;;
52686;SDS011;38584;49.426;8.396;2022-10-16T03:36:19;11.10;;;3.22;;
52686;SDS011;38584;49.426;8.396;2022-10-16T03:38:44;15.48;;;3.63;;
52686;SDS011;38584;49.426;8.396;2022-10-16T03:41:09;7.13;;;3.03;;
52686;SDS011;38584;49.426;8.396;2022-10-16T03:43:35;10.13;;;3.53;;
52686;SDS011;38584;49.426;8.396;2022-10-16T03:46:00;13.48;;;3.40;;
52686;SDS011;38584;49.426;8.396;2022-10-16T03:48:26;7.18;;;2.97;;
52686;SDS011;38584;49.426;8.396;2022-10-16T03:50:51;14.68;;;3.70;;
52686;SDS011;38584;49.426;8.396;2022-10-16T03:53:18;9.90;;;3.55;;
52686;SDS011;38584;49.426;8.396;2022-10-16T03:55:44;15.18;;;3.65;;
52686;SDS011;38584;49.426;8.396;2022-10-16T03:58:10;9.68;;;3.67;;
52686;SDS011;38584;49.426;8.396;2022-10-16T04:00:36;14.15;;;3.55;;
52686;SDS011;38584;49.426;8.396;2022-10-16T04:03:05;10.65;;;3.47;;
52686;SDS011;38584;49.426;8.396;2022-10-16T04:05:30;8.70;;;3.13;;
52686;SDS011;38584;49.426;8.396;2022-10-16T04:07:56;8.60;;;3.33;;
52686;SDS011;38584;49.426;8.396;2022-10-16T04:10:21;13.68;;;3.50;;
52686;SDS011;38584;49.426;8.396;2022-10-16T04:12:46;12.13;;;3.90;;
52686;SDS011;38584;49.426;8.396;2022-10-16T04:15:12;10.65;;;3.28;;
52686;SDS011;38584;49.426;8.396;2022-10-16T04:17:37;11.52;;;3.60;;
52686;SDS011;38584;49.426;8.396;2022-10-16T04:20:02;18.08;;;3.75;;
52686;SDS011;38584;49.426;8.396;2022-10-16T04:22:28;7.85;;;3.20;;
52686;SDS011;38584;49.426;8.396;2022-10-16T04:24:53;11.38;;;3.72;;
52686;SDS011;38584;49.426;8.396;2022-10-16T04:27:19;9.35;;;3.80;;
52686;SDS011;38584;49.426;8.396;2022-10-16T04:29:44;13.68;;;3.45;;
52686;SDS011;38584;49.426;8.396;2022-10-16T04:32:09;11.32;;;3.92;;
52686;SDS011;38584;49.426;8.396;2022-10-16T04:34:34;12.02;;;3.40;;
52686;SDS011;38584;49.426;8.396;2022-10-16T04:37:00;7.97;;;3.30;;
52686;SDS011;38584;49.426;8.396;2022-10-16T04:39:25;11.18;;;4.47;;
52686;SDS011;38584;49.426;8.396;2022-10-16T04:41:50;10.15;;;4.03;;
52686;SDS011;38584;49.426;8.396;2022-10-16T04:44:16;11.35;;;3.80;;
52686;SDS011;38584;49.426;8.396;2022-10-16T04:46:41;10.32;;;3.78;;
52686;SDS011;38584;49.426;8.396;2022-10-16T04:49:06;12.57;;;3.90;;
52686;SDS011;38584;49.426;8.396;2022-10-16T04:51:32;12.23;;;4.28;;
52686;SDS011;38584;49.426;8.396;2022-10-16T04:53:57;11.52;;;4.13;;
52686;SDS011;38584;49.426;8.396;2022-10-16T04:56:23;13.27;;;4.35;;
52686;SDS011;38584;49.426;8.396;2022-10-16T04:58:49;12.60;;;4.53;;
52686;SDS011;38584;49.426;8.396;2022-10-16T05:01:14;12.38;;;3.78;;
52686;SDS011;38584;49.426;8.396;2022-10-16T05:03:39;10.05;;;3.58;;
52686;SDS011;38584;49.426;8.396;2022-10-16T05:06:05;8.68;;;3.63;;
52686;SDS011;38584;49.426;8.396;2022-10-16T05:08:31;12.98;;;3.72;;
52686;SDS011;38584;49.426;8.396;2022-10-16T05:10:56;13.05;;;3.80;;
52686;SDS011;38584;49.426;8.396;2022-10-16T05:13:21;8.45;;;3.13;;
52686;SDS011;38584;49.426;8.396;2022-10-16T05:15:48;11.75;;;3.53;;
52686;SDS011;38584;49.426;8.396;2022-10-16T05:18:13;9.82;;;3.78;;
52686;SDS011;38584;49.426;8.396;2022-10-16T05:20:39;8.77;;;3.55;;
52686;SDS011;38584;49.426;8.396;2022-10-16T05:23:04;10.95;;;3.75;;
52686;SDS011;38584;49.426;8.396;2022-10-16T05:25:29;9.93;;;3.88;;
52686;SDS011;38584;49.426;8.396;2022-10-16T05:27:55;11.80;;;4.15;;
52686;SDS011;38584;49.426;8.396;2022-10-16T05:30:20;14.18;;;3.85;;
52686;SDS011;38584;49.426;8.396;2022-10-16T05:32:49;13.77;;;3.65;;
52686;SDS011;38584;49.426;8.396;2022-10-16T05:35:15;11.82;;;3.75;;
52686;SDS011;38584;49.426;8.396;2022-10-16T05:37:42;11.88;;;3.55;;
52686;SDS011;38584;49.426;8.396;2022-10-16T05:40:07;14.43;;;3.70;;
52686;SDS011;38584;49.426;8.396;2022-10-16T05:42:33;8.13;;;3.28;;
52686;SDS011;38584;49.426;8.396;2022-10-16T05:44:58;10.80;;;3.38;;
52686;SDS011;38584;49.426;8.396;2022-10-16T05:47:24;13.90;;;3.50;;
52686;SDS011;38584;49.426;8.396;2022-10-16T05:49:49;11.63;;;3.72;;
52686;SDS011;38584;49.426;8.396;2022-10-16T05:52:15;9.63;;;3.22;;
52686;SDS011;38584;49.426;8.396;2022-10-16T05:54:40;9.88;;;3.67;;
52686;SDS011;38584;49.426;8.396;2022-10-16T05:57:05;10.40;;;3.70;;
52686;SDS011;38584;49.426;8.396;2022-10-16T05:59:31;10.77;;;3.40;;
52686;SDS011;38584;49.426;8.396;2022-10-16T11:21:10;9.80;;;2.22;;
52686;SDS011;38584;49.426;8.396;2022-10-16T11:23:43;10.50;;;2.60;;
52686;SDS011;38584;49.426;8.396;2022-10-16T11:26:14;11.88;;;2.65;;
52686;SDS011;38584;49.426;8.396;2022-10-16T11:28:45;12.18;;;2.25;;
52686;SDS011;38584;49.426;8.396;2022-10-16T11:31:14;7.30;;;2.25;;
52686;SDS011;38584;49.426;8.396;2022-10-16T11:33:46;7.65;;;2.05;;
52686;SDS011;38584;49.426;8.396;2022-10-16T11:38:59;13.02;;;2.10;;
52686;SDS011;38584;49.426;8.396;2022-10-16T11:46:40;7.97;;;2.20;;
52686;SDS011;38584;49.426;8.396;2022-10-16T11:49:14;6.18;;;2.20;;
52686;SDS011;38584;49.426;8.396;2022-10-16T11:54:16;6.25;;;2.28;;
52686;SDS011;38584;49.426;8.396;2022-10-16T11:56:46;11.40;;;2.28;;
52686;SDS011;38584;49.426;8.396;2022-10-16T12:01:58;5.60;;;2.22;;
52686;SDS011;38584;49.426;8.396;2022-10-16T12:04:34;9.40;;;2.50;;
52686;SDS011;38584;49.426;8.396;2022-10-16T12:07:11;9.98;;;2.50;;
52686;SDS011;38584;49.426;8.396;2022-10-16T12:09:40;7.45;;;2.53;;
52686;SDS011;38584;49.426;8.396;2022-10-16T12:12:23;6.30;;;2.10;;
52686;SDS011;38584;49.426;8.396;2022-10-16T12:14:59;11.07;;;2.20;;
52686;SDS011;38584;49.426;8.396;2022-10-16T12:17:27;13.20;;;2.55;;
52686;SDS011;38584;49.426;8.396;2022-10-16T12:20:23;10.75;;;2.38;;
52686;SDS011;38584;49.426;8.396;2022-10-16T12:25:19;14.05;;;2.78;;
52686;SDS011;38584;49.426;8.396;2022-10-16T12:27:52;10.43;;;2.40;;
52686;SDS011;38584;49.426;8.396;2022-10-16T12:30:20;7.45;;;2.50;;
52686;SDS011;38584;49.426;8.396;2022-10-16T12:32:52;9.82;;;2.40;;
52686;SDS011;38584;49.426;8.396;2022-10-16T12:35:27;13.73;;;3.50;;
52686;SDS011;38584;49.426;8.396;2022-10-16T12:38:03;7.47;;;2.90;;
52686;SDS011;38584;49.426;8.396;2022-10-16T12:40:34;10.48;;;2.70;;
52686;SDS011;38584;49.426;8.396;2022-10-16T12:43:10;9.32;;;2.58;;
52686;SDS011;38584;49.426;8.396;2022-10-16T12:45:45;12.13;;;2.85;;
52686;SDS011;38584;49.426;8.396;2022-10-16T12:48:20;10.13;;;2.70;;
52686;SDS011;38584;49.426;8.396;2022-10-16T12:50:46;11.05;;;2.78;;
52686;SDS011;38584;49.426;8.396;2022-10-16T12:53:17;10.05;;;2.70;;
52686;SDS011;38584;49.426;8.396;2022-10-16T13:00:52;10.50;;;2.67;;
52686;SDS011;38584;49.426;8.396;2022-10-16T13:06:13;10.50;;;2.22;;
52686;SDS011;38584;49.426;8.396;2022-10-16T13:22:48;14.88;;;2.50;;
52686;SDS011;38584;49.426;8.396;2022-10-16T13:25:29;8.23;;;2.25;;
52686;SDS011;38584;49.426;8.396;2022-10-16T13:28:06;13.98;;;2.60;;
52686;SDS011;38584;49.426;8.396;2022-10-16T13:30:39;7.15;;;2.58;;
52686;SDS011;38584;49.426;8.396;2022-10-16T13:33:13;12.40;;;2.40;;
52686;SDS011;38584;49.426;8.396;2022-10-16T13:35:53;9.80;;;2.28;;
52686;SDS011;38584;49.426;8.396;2022-10-16T13:38:20;11.63;;;2.30;;
52686;SDS011;38584;49.426;8.396;2022-10-16T13:43:27;10.93;;;2.33;;
52686;SDS011;38584;49.426;8.396;2022-10-16T13:46:03;8.05;;;2.30;;
52686;SDS011;38584;49.426;8.396;2022-10-16T13:48:30;6.15;;;2.17;;
52686;SDS011;38584;49.426;8.396;2022-10-16T13:51:00;6.68;;;2.30;;
52686;SDS011;38584;49.426;8.396;2022-10-16T13:53:26;6.47;;;2.10;;
52686;SDS011;38584;49.426;8.396;2022-10-16T13:55:52;7.10;;;2.25;;
52686;SDS011;38584;49.426;8.396;2022-10-16T13:58:17;6.80;;;2.50;;
52686;SDS011;38584;49.426;8.396;2022-10-16T14:00:53;9.32;;;2.70;;
52686;SDS011;38584;49.426;8.396;2022-10-16T14:03:22;13.20;;;5.13;;
52686;SDS011;38584;49.426;8.396;2022-10-16T14:05:49;8.85;;;2.72;;
52686;SDS011;38584;49.426;8.396;2022-10-16T14:08:15;11.57;;;2.88;;
52686;SDS011;38584;49.426;8.396;2022-10-16T14:10:41;9.70;;;2.20;;
52686;SDS011;38584;49.426;8.396;2022-10-16T14:13:07;8.63;;;2.75;;
52686;SDS011;38584;49.426;8.396;2022-10-16T14:15:34;6.32;;;2.20;;
52686;SDS011;38584;49.426;8.396;2022-10-16T14:18:00;7.50;;;2.50;;
52686;SDS011;38584;49.426;8.396;2022-10-16T14:20:27;9.05;;;2.28;;
52686;SDS011;38584;49.426;8.396;2022-10-16T14:25:30;9.45;;;2.53;;
52686;SDS011;38584;49.426;8.396;2022-10-16T14:30:26;12.60;;;2.70;;
52686;SDS011;38584;49.426;8.396;2022-10-16T14:32:56;8.82;;;2.60;;
52686;SDS011;38584;49.426;8.396;2022-10-16T14:37:59;6.65;;;2.70;;
52686;SDS011;38584;49.426;8.396;2022-10-16T14:40:27;9.40;;;2.50;;
52686;SDS011;38584;49.426;8.396;2022-10-16T14:42:54;9.93;;;2.67;;
52686;SDS011;38584;49.426;8.396;2022-10-16T14:45:20;9.07;;;2.63;;
52686;SDS011;38584;49.426;8.396;2022-10-16T14:47:57;16.63;;;3.00;;
52686;SDS011;38584;49.426;8.396;2022-10-16T14:50:24;14.13;;;2.72;;
52686;SDS011;38584;49.426;8.396;2022-10-16T14:52:49;16.48;;;2.97;;
52686;SDS011;38584;49.426;8.396;2022-10-16T14:55:17;9.93;;;2.50;;
52686;SDS011;38584;49.426;8.396;2022-10-16T14:57:43;10.27;;;2.50;;
52686;SDS011;38584;49.426;8.396;2022-10-16T15:00:16;18.50;;;2.95;;
52686;SDS011;38584;49.426;8.396;2022-10-16T15:02:44;10.15;;;2.60;;
52686;SDS011;38584;49.426;8.396;2022-10-16T15:05:14;11.77;;;2.72;;
52686;SDS011;38584;49.426;8.396;2022-10-16T15:07:41;7.05;;;2.65;;
52686;SDS011;38584;49.426;8.396;2022-10-16T15:10:07;11.75;;;2.50;;
52686;SDS011;38584;49.426;8.396;2022-10-16T15:12:32;7.65;;;2.47;;
52686;SDS011;38584;49.426;8.396;2022-10-16T15:14:58;8.13;;;2.50;;
52686;SDS011;38584;49.426;8.396;2022-10-16T15:17:23;10.77;;;2.72;;
52686;SDS011;38584;49.426;8.396;2022-10-16T15:19:48;7.40;;;2.60;;
52686;SDS011;38584;49.426;8.396;2022-10-16T15:22:16;8.30;;;2.60;;
52686;SDS011;38584;49.426;8.396;2022-10-16T15:24:42;6.82;;;2.58;;
52686;SDS011;38584;49.426;8.396;2022-10-16T15:27:07;15.43;;;2.72;;
52686;SDS011;38584;49.426;8.396;2022-10-16T15:29:33;11.38;;;3.00;;
52686;SDS011;38584;49.426;8.396;2022-10-16T15:31:58;11.93;;;2.80;;
52686;SDS011;38584;49.426;8.396;2022-10-16T15:34:23;14.38;;;3.00;;
52686;SDS011;38584;49.426;8.396;2022-10-16T15:36:49;9.82;;;2.88;;
52686;SDS011;38584;49.426;8.396;2022-10-16T15:39:15;7.53;;;2.70;;
52686;SDS011;38584;49.426;8.396;2022-10-16T15:41:42;8.05;;;2.95;;
52686;SDS011;38584;49.426;8.396;2022-10-16T15:44:08;9.25;;;3.10;;
52686;SDS011;38584;49.426;8.396;2022-10-16T15:46:33;14.95;;;2.80;;
52686;SDS011;38584;49.426;8.396;2022-10-16T15:48:59;9.05;;;2.70;;
52686;SDS011;38584;49.426;8.396;2022-10-16T15:51:25;8.65;;;2.88;;
52686;SDS011;38584;49.426;8.396;2022-10-16T15:53:58;9.82;;;3.13;;
52686;SDS011;38584;49.426;8.396;2022-10-16T15:56:24;11.40;;;2.88;;
52686;SDS011;38584;49.426;8.396;2022-10-16T15:58:50;14.15;;;3.25;;
52686;SDS011;38584;49.426;8.396;2022-10-16T16:01:16;14.23;;;3.17;;
52686;SDS011;38584;49.426;8.396;2022-10-16T16:03:43;10.27;;;2.90;;
52686;SDS011;38584;49.426;8.396;2022-10-16T16:06:10;11.13;;;3.08;;
52686;SDS011;38584;49.426;8.396;2022-10-16T16:08:36;11.35;;;3.38;;
52686;SDS011;38584;49.426;8.396;2022-10-16T16:13:31;9.93;;;3.10;;
52686;SDS011;38584;49.426;8.396;2022-10-16T16:15:57;9.95;;;2.78;;
52686;SDS011;38584;49.426;8.396;2022-10-16T16:18:22;11.57;;;2.67;;
52686;SDS011;38584;49.426;8.396;2022-10-16T16:20:48;8.57;;;3.10;;
52686;SDS011;38584;49.426;8.396;2022-10-16T16:23:14;9.20;;;3.17;;
52686;SDS011;38584;49.426;8.396;2022-10-16T16:25:40;13.15;;;3.30;;
52686;SDS011;38584;49.426;8.396;2022-10-16T16:28:05;9.77;;;2.83;;
52686;SDS011;38584;49.426;8.396;2022-10-16T16:30:32;10.77;;;3.53;;
52686;SDS011;38584;49.426;8.396;2022-10-16T16:32:57;7.90;;;3.10;;
52686;SDS011;38584;49.426;8.396;2022-10-16T16:35:22;8.93;;;3.13;;
52686;SDS011;38584;49.426;8.396;2022-10-16T16:37:47;11.45;;;3.22;;
52686;SDS011;38584;49.426;8.396;2022-10-16T16:40:13;15.55;;;3.85;;
52686;SDS011;38584;49.426;8.396;2022-10-16T16:42:38;16.67;;;4.43;;
52686;SDS011;38584;49.426;8.396;2022-10-16T16:45:04;10.32;;;4.10;;
52686;SDS011;38584;49.426;8.396;2022-10-16T16:47:29;13.07;;;4.95;;
52686;SDS011;38584;49.426;8.396;2022-10-16T16:49:55;14.40;;;5.80;;
52686;SDS011;38584;49.426;8.396;2022-10-16T16:52:20;21.08;;;9.18;;
52686;SDS011;38584;49.426;8.396;2022-10-16T16:54:47;19.58;;;10.52;;
52686;SDS011;38584;49.426;8.396;2022-10-16T16:57:16;22.38;;;12.15;;
52686;SDS011;38584;49.426;8.396;2022-10-16T16:59:45;23.42;;;11.18;;
52686;SDS011;38584;49.426;8.396;2022-10-16T17:02:10;22.05;;;12.60;;
52686;SDS011;38584;49.426;8.396;2022-10-16T17:04:35;23.13;;;13.18;;
52686;SDS011;38584;49.426;8.396;2022-10-16T17:07:01;21.27;;;12.73;;
52686;SDS011;38584;49.426;8.396;2022-10-16T17:09:26;20.73;;;12.80;;
52686;SDS011;38584;49.426;8.396;2022-10-16T17:11:51;20.58;;;12.45;;
52686;SDS011;38584;49.426;8.396;2022-10-16T17:14:17;19.90;;;11.05;;
52686;SDS011;38584;49.426;8.396;2022-10-16T17:16:42;19.05;;;9.88;;
52686;SDS011;38584;49.426;8.396;2022-10-16T17:19:13;16.73;;;6.65;;
52686;SDS011;38584;49.426;8.396;2022-10-16T17:21:40;15.20;;;7.00;;
52686;SDS011;38584;49.426;8.396;2022-10-16T17:24:06;14.90;;;5.80;;
52686;SDS011;38584;49.426;8.396;2022-10-16T17:26:32;12.45;;;5.15;;
52686;SDS011;38584;49.426;8.396;2022-10-16T17:28:58;14.80;;;5.22;;
52686;SDS011;38584;49.426;8.396;2022-10-16T17:31:27;13.70;;;4.90;;
52686;SDS011;38584;49.426;8.396;2022-10-16T17:33:54;10.00;;;4.40;;
52686;SDS011;38584;49.426;8.396;2022-10-16T17:36:20;8.90;;;4.10;;
52686;SDS011;38584;49.426;8.396;2022-10-16T17:38:46;11.98;;;4.20;;
52686;SDS011;38584;49.426;8.396;2022-10-16T17:41:15;16.17;;;4.20;;
52686;SDS011;38584;49.426;8.396;2022-10-16T17:43:43;16.20;;;4.45;;
52686;SDS011;38584;49.426;8.396;2022-10-16T17:46:08;12.00;;;3.80;;
52686;SDS011;38584;49.426;8.396;2022-10-16T17:48:38;9.88;;;4.40;;
52686;SDS011;38584;49.426;8.396;2022-10-16T17:51:08;9.32;;;3.83;;
52686;SDS011;38584;49.426;8.396;2022-10-16T17:53:34;13.45;;;3.85;;
52686;SDS011;38584;49.426;8.396;2022-10-16T17:56:04;15.52;;;3.92;;
52686;SDS011;38584;49.426;8.396;2022-10-16T17:58:31;11.40;;;3.88;;
52686;SDS011;38584;49.426;8.396;2022-10-16T18:00:56;11.25;;;3.70;;
52686;SDS011;38584;49.426;8.396;2022-10-16T18:03:22;12.13;;;3.42;;
52686;SDS011;38584;49.426;8.396;2022-10-16T18:05:50;11.38;;;3.75;;
52686;SDS011;38584;49.426;8.396;2022-10-16T18:08:15;10.70;;;3.22;;
52686;SDS011;38584;49.426;8.396;2022-10-16T18:10:44;11.15;;;4.07;;
52686;SDS011;38584;49.426;8.396;2022-10-16T18:13:11;10.80;;;3.70;;
52686;SDS011;38584;49.426;8.396;2022-10-16T18:15:37;12.02;;;4.28;;
52686;SDS011;38584;49.426;8.396;2022-10-16T18:18:02;12.88;;;4.13;;
52686;SDS011;38584;49.426;8.396;2022-10-16T18:20:28;13.30;;;4.25;;
52686;SDS011;38584;49.426;8.396;2022-10-16T18:22:53;12.27;;;4.20;;
52686;SDS011;38584;49.426;8.396;2022-10-16T18:25:19;13.55;;;4.50;;
52686;SDS011;38584;49.426;8.396;2022-10-16T18:27:45;11.25;;;4.53;;
52686;SDS011;38584;49.426;8.396;2022-10-16T18:30:10;17.88;;;5.18;;
52686;SDS011;38584;49.426;8.396;2022-10-16T18:32:35;11.82;;;4.60;;
52686;SDS011;38584;49.426;8.396;2022-10-16T18:35:01;18.23;;;7.38;;
52686;SDS011;38584;49.426;8.396;2022-10-16T18:37:26;24.70;;;13.02;;
52686;SDS011;38584;49.426;8.396;2022-10-16T18:39:52;31.80;;;18.83;;
52686;SDS011;38584;49.426;8.396;2022-10-16T18:42:17;30.38;;;17.75;;
52686;SDS011;38584;49.426;8.396;2022-10-16T18:44:43;40.28;;;20.70;;
52686;SDS011;38584;49.426;8.396;2022-10-16T18:47:08;47.72;;;21.98;;
52686;SDS011;38584;49.426;8.396;2022-10-16T18:49:34;45.58;;;24.00;;
52686;SDS011;38584;49.426;8.396;2022-10-16T18:51:59;41.15;;;19.85;;
52686;SDS011;38584;49.426;8.396;2022-10-16T18:54:27;47.15;;;20.58;;
52686;SDS011;38584;49.426;8.396;2022-10-16T18:56:53;39.00;;;16.80;;
52686;SDS011;38584;49.426;8.396;2022-10-16T18:59:19;26.88;;;13.93;;
52686;SDS011;38584;49.426;8.396;2022-10-16T19:01:44;22.13;;;8.60;;
52686;SDS011;38584;49.426;8.396;2022-10-16T19:04:13;17.92;;;7.43;;
52686;SDS011;38584;49.426;8.396;2022-10-16T19:06:41;19.23;;;8.27;;
52686;SDS011;38584;49.426;8.396;2022-10-16T19:09:08;15.70;;;7.05;;
52686;SDS011;38584;49.426;8.396;2022-10-16T19:11:34;15.73;;;6.78;;
52686;SDS011;38584;49.426;8.396;2022-10-16T19:14:00;17.02;;;7.53;;
52686;SDS011;38584;49.426;8.396;2022-10-16T19:16:26;13.70;;;6.72;;
52686;SDS011;38584;49.426;8.396;2022-10-16T19:18:54;17.05;;;7.03;;
52686;SDS011;38584;49.426;8.396;2022-10-16T19:21:21;19.88;;;6.75;;
52686;SDS011;38584;49.426;8.396;2022-10-16T19:24:20;21.92;;;7.53;;
52686;SDS011;38584;49.426;8.396;2022-10-16T19:26:39;18.23;;;7.75;;
52686;SDS011;38584;49.426;8.396;2022-10-16T19:29:05;17.42;;;7.38;;
52686;SDS011;38584;49.426;8.396;2022-10-16T19:31:31;15.52;;;7.28;;
52686;SDS011;38584;49.426;8.396;2022-10-16T19:33:57;14.48;;;6.55;;
52686;SDS011;38584;49.426;8.396;2022-10-16T19:36:26;17.83;;;7.13;;
52686;SDS011;38584;49.426;8.396;2022-10-16T19:39:02;17.40;;;6.35;;
52686;SDS011;38584;49.426;8.396;2022-10-16T19:41:32;16.63;;;6.68;;
52686;SDS011;38584;49.426;8.396;2022-10-16T19:44:00;16.73;;;6.22;;
52686;SDS011;38584;49.426;8.396;2022-10-16T19:46:26;16.50;;;5.53;;
52686;SDS011;38584;49.426;8.396;2022-10-16T19:48:55;14.38;;;5.70;;
52686;SDS011;38584;49.426;8.396;2022-10-16T19:51:23;14.73;;;5.75;;
52686;SDS011;38584;49.426;8.396;2022-10-16T19:53:52;17.25;;;5.63;;
52686;SDS011;38584;49.426;8.396;2022-10-16T19:56:20;12.85;;;5.82;;
52686;SDS011;38584;49.426;8.396;2022-10-16T19:58:47;14.15;;;5.47;;
52686;SDS011;38584;49.426;8.396;2022-10-16T20:01:13;14.23;;;5.00;;
52686;SDS011;38584;49.426;8.396;2022-10-16T20:03:39;15.43;;;5.07;;
52686;SDS011;38584;49.426;8.396;2022-10-16T20:06:05;17.50;;;5.40;;
52686;SDS011;38584;49.426;8.396;2022-10-16T20:08:31;12.57;;;5.53;;
52686;SDS011;38584;49.426;8.396;2022-10-16T20:10:58;12.73;;;5.10;;
52686;SDS011;38584;49.426;8.396;2022-10-16T20:13:24;14.02;;;5.57;;
52686;SDS011;38584;49.426;8.396;2022-10-16T20:15:49;13.98;;;4.70;;
52686;SDS011;38584;49.426;8.396;2022-10-16T20:18:15;14.38;;;4.65;;
52686;SDS011;38584;49.426;8.396;2022-10-16T20:20:41;14.40;;;5.00;;
52686;SDS011;38584;49.426;8.396;2022-10-16T20:23:09;18.92;;;4.85;;
52686;SDS011;38584;49.426;8.396;2022-10-16T20:25:35;11.73;;;4.82;;
52686;SDS011;38584;49.426;8.396;2022-10-16T20:28:01;18.15;;;4.82;;
52686;SDS011;38584;49.426;8.396;2022-10-16T20:30:27;13.57;;;4.80;;
52686;SDS011;38584;49.426;8.396;2022-10-16T20:32:53;14.25;;;4.53;;
52686;SDS011;38584;49.426;8.396;2022-10-16T20:35:20;14.90;;;5.00;;
52686;SDS011;38584;49.426;8.396;2022-10-16T20:37:46;12.93;;;4.93;;
52686;SDS011;38584;49.426;8.396;2022-10-16T20:40:13;11.77;;;4.85;;
52686;SDS011;38584;49.426;8.396;2022-10-16T20:42:38;13.60;;;4.88;;
52686;SDS011;38584;49.426;8.396;2022-10-16T20:45:04;14.68;;;4.75;;
52686;SDS011;38584;49.426;8.396;2022-10-16T20:47:29;12.75;;;5.07;;
52686;SDS011;38584;49.426;8.396;2022-10-16T20:49:55;11.95;;;4.70;;
52686;SDS011;38584;49.426;8.396;2022-10-16T20:52:20;12.38;;;4.65;;
52686;SDS011;38584;49.426;8.396;2022-10-16T20:54:45;9.35;;;4.35;;
52686;SDS011;38584;49.426;8.396;2022-10-16T20:57:11;10.77;;;4.60;;
52686;SDS011;38584;49.426;8.396;2022-10-16T20:59:36;14.30;;;4.40;;
52686;SDS011;38584;49.426;8.396;2022-10-16T21:02:01;13.82;;;5.40;;
52686;SDS011;38584;49.426;8.396;2022-10-16T21:04:27;13.48;;;4.82;;